createdAt,value
2018-10-02T00:01:29.146Z,2.43
2018-10-02T00:03:57.610Z,2.63
2018-10-02T00:06:26.395Z,2.23
2018-10-02T00:08:54.929Z,3.13
2018-10-02T00:11:28.652Z,2.90
2018-10-02T00:14:02.358Z,3.00
2018-10-02T00:16:30.970Z,3.50
2018-10-02T00:18:59.579Z,3.93
2018-10-02T00:21:28.080Z,5.33
2018-10-02T00:23:56.555Z,2.80
2018-10-02T00:26:25.043Z,3.60
2018-10-02T00:28:54.114Z,3.30
2018-10-02T00:31:22.631Z,2.90
2018-10-02T00:33:51.279Z,3.23
2018-10-02T00:36:19.731Z,3.00
2018-10-02T00:38:48.230Z,3.30
2018-10-02T00:41:16.702Z,3.60
2018-10-02T00:43:45.171Z,3.53
2018-10-02T00:46:13.624Z,3.27
2018-10-02T00:48:42.133Z,3.23
2018-10-02T00:51:10.597Z,3.00
2018-10-02T00:53:39.089Z,2.80
2018-10-02T00:56:07.634Z,3.00
2018-10-02T00:58:36.146Z,3.23
2018-10-02T01:01:05.223Z,3.67
2018-10-02T01:03:33.710Z,3.23
2018-10-02T01:06:02.174Z,3.57
2018-10-02T01:08:30.612Z,3.47
2018-10-02T01:10:59.131Z,2.93
2018-10-02T01:13:27.590Z,3.70
2018-10-02T01:15:56.062Z,3.53
2018-10-02T01:18:24.519Z,3.97
2018-10-02T01:20:53.012Z,3.80
2018-10-02T01:23:21.493Z,4.43
2018-10-02T01:25:49.962Z,3.87
2018-10-02T01:28:18.498Z,4.13
2018-10-02T01:30:46.999Z,4.87
2018-10-02T01:33:15.469Z,4.73
2018-10-02T01:35:43.934Z,4.87
2018-10-02T01:38:12.386Z,5.70
2018-10-02T01:40:40.890Z,4.77
2018-10-02T01:43:09.342Z,4.77
2018-10-02T01:45:37.863Z,5.20
2018-10-02T01:48:06.686Z,5.47
2018-10-02T01:50:35.184Z,5.60
2018-10-02T01:53:03.661Z,5.77
2018-10-02T01:55:32.479Z,5.80
2018-10-02T01:58:00.933Z,6.07
2018-10-02T02:00:29.397Z,5.10
2018-10-02T02:02:57.888Z,4.90
2018-10-02T02:05:26.359Z,5.13
2018-10-02T02:07:54.816Z,6.03
2018-10-02T02:10:23.258Z,5.10
2018-10-02T02:12:52.316Z,5.40
2018-10-02T02:15:20.796Z,5.37
2018-10-02T02:17:54.242Z,5.03
2018-10-02T02:20:22.695Z,5.00
2018-10-02T02:22:51.710Z,6.67
2018-10-02T02:25:20.199Z,5.10
2018-10-02T02:27:48.701Z,6.17
2018-10-02T02:30:17.154Z,4.77
2018-10-02T02:32:45.785Z,4.63
2018-10-02T02:35:14.371Z,4.80
2018-10-02T02:37:43.018Z,5.23
2018-10-02T02:40:11.730Z,4.77
2018-10-02T02:42:40.209Z,5.73
2018-10-02T02:45:09.174Z,5.00
2018-10-02T02:47:43.558Z,4.87
2018-10-02T02:52:19.234Z,4.60
2018-10-02T02:54:47.773Z,4.10
2018-10-02T02:57:16.230Z,4.47
2018-10-02T02:59:44.705Z,5.70
2018-10-02T03:02:13.218Z,5.17
2018-10-02T03:04:41.682Z,4.27
2018-10-02T03:07:10.118Z,4.60
2018-10-02T03:09:38.601Z,5.13
2018-10-02T03:12:07.102Z,4.80
2018-10-02T03:14:35.557Z,4.63
2018-10-02T03:17:04.410Z,4.27
2018-10-02T03:19:32.854Z,4.57
2018-10-02T03:22:01.382Z,4.23
2018-10-02T03:24:29.864Z,4.60
2018-10-02T03:26:58.314Z,4.00
2018-10-02T03:29:26.778Z,4.23
2018-10-02T03:31:55.223Z,4.97
2018-10-02T03:34:23.831Z,4.43
2018-10-02T03:36:52.323Z,3.60
2018-10-02T03:39:20.842Z,3.80
2018-10-02T03:41:49.360Z,4.17
2018-10-02T03:44:18.062Z,3.23
2018-10-02T03:46:46.556Z,3.93
2018-10-02T03:49:15.013Z,3.47
2018-10-02T03:51:43.507Z,4.03
2018-10-02T03:54:11.954Z,3.80
2018-10-02T03:56:40.414Z,3.07
2018-10-02T03:59:08.911Z,3.07
2018-10-02T04:01:37.383Z,3.13
2018-10-02T04:04:06.279Z,3.60
2018-10-02T04:06:34.878Z,4.30
2018-10-02T04:09:03.943Z,3.90
2018-10-02T04:11:32.410Z,3.50
2018-10-02T04:14:01.211Z,3.50
2018-10-02T04:16:29.743Z,4.00
2018-10-02T04:18:58.763Z,4.63
2018-10-02T04:21:34.844Z,4.50
2018-10-02T04:24:04.790Z,4.43
2018-10-02T04:26:34.962Z,4.93
2018-10-02T04:29:03.902Z,5.03
2018-10-02T04:31:33.522Z,5.33
2018-10-02T04:34:02.042Z,5.60
2018-10-02T04:36:30.823Z,6.43
2018-10-02T04:38:59.404Z,6.10
2018-10-02T04:41:34.514Z,6.17
2018-10-02T04:44:02.959Z,5.90
2018-10-02T04:46:32.099Z,6.77
2018-10-02T04:49:00.574Z,6.40
2018-10-02T04:51:28.986Z,5.83
2018-10-02T04:53:57.446Z,6.07
2018-10-02T04:56:25.880Z,6.77
2018-10-02T04:58:54.312Z,5.60
2018-10-02T05:01:22.754Z,6.50
2018-10-02T05:03:51.235Z,7.20
2018-10-02T05:06:19.765Z,6.53
2018-10-02T05:08:48.274Z,6.30
2018-10-02T05:11:16.934Z,7.17
2018-10-02T05:13:45.416Z,6.37
2018-10-02T05:16:14.275Z,6.80
2018-10-02T05:18:42.721Z,7.70
2018-10-02T05:21:11.191Z,7.50
2018-10-02T05:23:39.631Z,7.60
2018-10-02T05:26:08.079Z,8.00
2018-10-02T05:28:36.578Z,7.77
2018-10-02T05:31:05.531Z,7.13
2018-10-02T05:33:33.949Z,7.53
2018-10-02T05:36:02.407Z,7.97
2018-10-02T05:38:30.855Z,7.10
2018-10-02T05:40:59.318Z,8.57
2018-10-02T05:43:27.748Z,6.73
2018-10-02T05:45:56.542Z,8.10
2018-10-02T05:48:25.917Z,9.03
2018-10-02T05:50:54.360Z,7.70
2018-10-02T05:53:22.960Z,8.67
2018-10-02T05:55:51.406Z,8.83
2018-10-02T05:58:19.895Z,7.60
2018-10-02T06:00:49.066Z,8.13
2018-10-02T06:03:17.603Z,8.33
2018-10-02T06:05:46.296Z,9.17
2018-10-02T06:08:14.743Z,8.20
2018-10-02T06:10:43.194Z,8.10
2018-10-02T06:13:12.070Z,8.60
2018-10-02T06:15:40.545Z,7.33
2018-10-02T06:18:09.028Z,8.20
2018-10-02T06:20:38.124Z,7.97
2018-10-02T06:23:06.594Z,7.70
2018-10-02T06:25:35.152Z,7.13
2018-10-02T06:28:03.603Z,7.07
2018-10-02T06:30:32.050Z,9.67
2018-10-02T06:33:00.455Z,7.20
2018-10-02T06:35:28.915Z,7.63
2018-10-02T06:37:57.387Z,6.17
2018-10-02T06:40:26.007Z,6.67
2018-10-02T06:42:54.590Z,6.80
2018-10-02T06:45:24.798Z,7.07
2018-10-02T06:47:53.323Z,7.40
2018-10-02T06:50:23.009Z,7.00
2018-10-02T06:52:51.654Z,7.27
2018-10-02T06:55:20.075Z,6.83
2018-10-02T06:57:49.079Z,6.00
2018-10-02T07:00:18.959Z,7.50
2018-10-02T07:02:47.621Z,7.40
2018-10-02T07:05:16.052Z,7.47
2018-10-02T07:07:44.521Z,7.00
2018-10-02T07:10:13.548Z,7.17
2018-10-02T07:12:42.077Z,6.33
2018-10-02T07:15:11.079Z,6.30
2018-10-02T07:17:39.812Z,5.63
2018-10-02T07:20:08.511Z,6.70
2018-10-02T07:22:37.000Z,6.47
2018-10-02T07:25:06.923Z,5.67
2018-10-02T07:27:35.540Z,6.87
2018-10-02T07:30:04.127Z,5.47
2018-10-02T07:32:32.639Z,6.20
2018-10-02T07:35:01.229Z,6.13
2018-10-02T07:37:29.667Z,6.80
2018-10-02T07:39:58.074Z,6.77
2018-10-02T07:42:26.614Z,6.87
2018-10-02T07:44:55.573Z,7.03
2018-10-02T07:47:24.217Z,6.90
2018-10-02T07:49:52.830Z,6.00
2018-10-02T07:52:21.289Z,6.03
2018-10-02T07:54:49.731Z,6.47
2018-10-02T07:57:18.175Z,6.17
2018-10-02T07:59:47.053Z,6.43
2018-10-02T08:02:15.575Z,6.03
2018-10-02T08:04:44.092Z,6.27
2018-10-02T08:07:12.678Z,6.47
2018-10-02T08:09:41.144Z,6.67
2018-10-02T08:12:09.640Z,5.70
2018-10-02T08:14:38.256Z,5.13
2018-10-02T08:17:06.852Z,5.23
2018-10-02T08:19:35.298Z,5.87
2018-10-02T08:22:03.747Z,5.23
2018-10-02T08:24:32.180Z,5.20
2018-10-02T08:27:00.644Z,5.43
2018-10-02T08:29:30.072Z,5.07
2018-10-02T08:31:59.148Z,5.67
2018-10-02T08:34:27.846Z,5.60
2018-10-02T08:36:56.284Z,5.93
2018-10-02T08:39:24.718Z,5.33
2018-10-02T08:41:53.225Z,4.13
2018-10-02T08:44:21.806Z,4.97
2018-10-02T08:46:50.471Z,5.60
2018-10-02T08:49:18.925Z,5.17
2018-10-02T08:51:47.407Z,4.93
2018-10-02T08:54:15.978Z,4.90
2018-10-02T08:56:44.415Z,5.10
2018-10-02T08:59:13.351Z,5.60
2018-10-02T09:01:41.881Z,4.80
2018-10-02T09:04:10.557Z,6.07
2018-10-02T09:06:39.064Z,5.60
2018-10-02T09:09:10.810Z,5.73
2018-10-02T09:11:39.275Z,6.93
2018-10-02T09:14:08.471Z,6.77
2018-10-02T09:16:37.163Z,6.53
2018-10-02T09:19:05.948Z,7.70
2018-10-02T09:21:34.483Z,8.20
2018-10-02T09:24:03.318Z,7.90
2018-10-02T09:26:31.903Z,8.03
2018-10-02T09:29:00.634Z,8.33
2018-10-02T09:31:34.481Z,9.03
2018-10-02T09:34:08.293Z,8.90
2018-10-02T09:36:42.044Z,9.37
2018-10-02T09:39:15.975Z,8.70
2018-10-02T09:41:50.058Z,9.43
2018-10-02T09:44:19.823Z,9.47
2018-10-02T09:46:48.281Z,9.03
2018-10-02T09:49:16.723Z,9.37
2018-10-02T09:51:45.231Z,9.97
2018-10-02T09:54:13.838Z,8.53
2018-10-02T09:56:44.444Z,9.10
2018-10-02T09:59:14.194Z,9.23
2018-10-02T10:01:47.940Z,8.53
2018-10-02T10:04:16.771Z,8.80
2018-10-02T10:06:45.611Z,9.30
2018-10-02T10:09:14.173Z,8.60
2018-10-02T10:11:43.003Z,8.47
2018-10-02T10:14:11.489Z,9.40
2018-10-02T10:16:40.263Z,8.30
2018-10-02T10:19:08.779Z,9.00
2018-10-02T10:21:37.467Z,8.77
2018-10-02T10:24:05.987Z,9.73
2018-10-02T10:26:34.414Z,9.27
2018-10-02T10:29:03.130Z,10.77
2018-10-02T10:31:31.669Z,10.53
2018-10-02T10:34:00.253Z,11.00
2018-10-02T10:36:28.666Z,11.70
2018-10-02T10:38:57.108Z,11.37
2018-10-02T10:41:25.745Z,12.17
2018-10-02T10:43:54.187Z,13.40
2018-10-02T10:46:22.649Z,13.83
2018-10-02T10:48:51.298Z,15.33
2018-10-02T10:51:19.875Z,14.40
2018-10-02T10:53:48.322Z,15.07
2018-10-02T10:56:16.809Z,14.90
2018-10-02T10:58:45.434Z,15.87
2018-10-02T11:01:14.070Z,16.33
2018-10-02T11:03:42.490Z,15.70
2018-10-02T11:06:11.270Z,16.97
2018-10-02T11:08:39.727Z,17.33
2018-10-02T11:11:08.210Z,15.33
2018-10-02T11:13:36.703Z,14.60
2018-10-02T11:16:05.151Z,14.53
2018-10-02T11:18:33.588Z,15.90
2018-10-02T11:21:02.098Z,14.93
2018-10-02T11:23:30.872Z,15.20
2018-10-02T11:25:59.343Z,14.90
2018-10-02T11:28:27.775Z,15.80
2018-10-02T11:30:56.231Z,15.43
2018-10-02T11:33:24.698Z,14.47
2018-10-02T11:35:53.138Z,15.67
2018-10-02T11:38:21.679Z,15.00
2018-10-02T11:40:50.198Z,17.37
2018-10-02T11:43:18.694Z,16.37
2018-10-02T11:45:47.327Z,15.87
2018-10-02T11:48:15.766Z,16.63
2018-10-02T11:50:44.216Z,18.20
2018-10-02T11:53:12.659Z,17.37
2018-10-02T11:55:41.168Z,17.60
2018-10-02T11:58:09.740Z,18.57
2018-10-02T12:00:38.785Z,18.40
2018-10-02T12:03:07.325Z,17.13
2018-10-02T12:05:35.868Z,18.70
2018-10-02T12:08:04.355Z,17.27
2018-10-02T12:10:32.822Z,15.60
2018-10-02T12:13:01.288Z,17.80
2018-10-02T12:15:30.040Z,17.40
2018-10-02T12:17:58.513Z,19.13
2018-10-02T12:20:26.966Z,19.40
2018-10-02T12:22:55.447Z,18.23
2018-10-02T12:25:23.897Z,17.73
2018-10-02T12:27:52.331Z,17.30
2018-10-02T12:30:20.805Z,16.93
2018-10-02T12:32:49.265Z,15.60
2018-10-02T12:35:17.711Z,16.43
2018-10-02T12:37:46.866Z,16.60
2018-10-02T12:40:15.683Z,17.63
2018-10-02T12:42:44.669Z,16.43
2018-10-02T12:45:13.211Z,16.40
2018-10-02T12:47:41.931Z,16.53
2018-10-02T12:50:10.389Z,16.13
2018-10-02T12:52:38.924Z,15.40
2018-10-02T12:55:07.442Z,14.90
2018-10-02T12:57:35.983Z,17.17
2018-10-02T13:00:05.115Z,13.67
2018-10-02T13:02:33.573Z,12.80
2018-10-02T13:05:02.015Z,13.83
2018-10-02T13:07:30.863Z,11.90
2018-10-02T13:10:00.053Z,10.67
2018-10-02T13:12:28.910Z,9.97
2018-10-02T13:14:57.403Z,12.40
2018-10-02T13:17:25.851Z,10.10
2018-10-02T13:19:56.458Z,10.93
2018-10-02T13:22:26.585Z,10.60
2018-10-02T13:24:55.074Z,10.67
2018-10-02T13:27:23.602Z,11.17
2018-10-02T13:29:52.288Z,11.77
2018-10-02T13:32:20.839Z,12.10
2018-10-02T13:34:49.438Z,12.50
2018-10-02T13:37:18.376Z,12.73
2018-10-02T13:39:46.847Z,12.50
2018-10-02T13:42:15.282Z,13.53
2018-10-02T13:44:43.773Z,14.40
2018-10-02T13:47:16.662Z,14.40
2018-10-02T13:49:45.143Z,14.30
2018-10-02T13:52:13.890Z,15.63
2018-10-02T13:54:42.359Z,21.80
2018-10-02T13:57:14.397Z,26.37
2018-10-02T13:59:43.248Z,18.30
2018-10-02T14:02:11.703Z,17.10
2018-10-02T14:04:40.181Z,21.63
2018-10-02T14:07:08.622Z,17.47
2018-10-02T14:09:37.053Z,17.40
2018-10-02T14:12:05.547Z,17.77
2018-10-02T14:14:34.013Z,17.70
2018-10-02T14:17:22.538Z,16.67
2018-10-02T14:19:52.742Z,18.77
2018-10-02T14:22:30.474Z,18.03
2018-10-02T14:24:59.123Z,18.50
2018-10-02T14:27:27.736Z,16.87
2018-10-02T14:29:57.599Z,55.47
2018-10-02T14:32:26.955Z,19.70
2018-10-02T14:34:55.548Z,19.10
2018-10-02T14:37:24.080Z,15.33
2018-10-02T14:39:52.538Z,17.83
2018-10-02T14:42:21.283Z,16.90
2018-10-02T14:44:49.724Z,17.03
2018-10-02T14:47:27.705Z,19.23
2018-10-02T14:50:06.962Z,15.60
2018-10-02T14:52:36.791Z,17.70
2018-10-02T14:55:13.805Z,16.17
2018-10-02T14:57:42.510Z,18.43
2018-10-02T15:00:10.975Z,16.67
2018-10-02T15:02:40.426Z,17.20
2018-10-02T15:05:08.835Z,21.03
2018-10-02T15:07:37.287Z,19.83
2018-10-02T15:10:06.178Z,19.13
2018-10-02T15:12:34.642Z,18.17
2018-10-02T15:15:03.077Z,19.63
2018-10-02T15:17:31.528Z,16.77
2018-10-02T15:19:59.963Z,18.13
2018-10-02T15:22:28.417Z,16.13
2018-10-02T15:24:56.871Z,20.07
2018-10-02T15:27:25.363Z,16.70
2018-10-02T15:29:53.830Z,13.70
2018-10-02T15:32:22.346Z,16.27
2018-10-02T15:34:50.837Z,14.90
2018-10-02T15:37:19.390Z,12.23
2018-10-02T15:39:48.087Z,11.20
2018-10-02T15:42:16.576Z,11.47
2018-10-02T15:44:45.123Z,9.83
2018-10-02T15:47:13.733Z,10.03
2018-10-02T15:49:42.194Z,9.03
2018-10-02T15:52:10.683Z,8.67
2018-10-02T15:54:39.199Z,8.53
2018-10-02T15:57:07.677Z,9.07
2018-10-02T15:59:36.142Z,7.50
2018-10-02T16:02:04.611Z,7.57
2018-10-02T16:04:33.129Z,7.57
2018-10-02T16:07:01.557Z,7.43
2018-10-02T16:09:29.999Z,7.23
2018-10-02T16:11:58.698Z,7.17
2018-10-02T16:14:27.195Z,6.73
2018-10-02T16:16:55.643Z,7.53
2018-10-02T16:19:24.107Z,5.57
2018-10-02T16:21:52.556Z,5.20
2018-10-02T16:24:21.472Z,8.13
2018-10-02T16:26:49.917Z,8.80
2018-10-02T16:29:18.428Z,4.13
2018-10-02T16:31:46.919Z,3.73
2018-10-02T16:34:15.358Z,4.43
2018-10-02T16:36:43.812Z,2.83
2018-10-02T16:39:13.121Z,2.70
2018-10-02T16:41:41.549Z,3.03
2018-10-02T16:44:10.047Z,2.93
2018-10-02T16:46:38.475Z,2.40
2018-10-02T16:49:07.810Z,2.57
2018-10-02T16:51:36.337Z,3.17
2018-10-02T16:54:05.001Z,4.07
2018-10-02T16:56:33.483Z,3.80
2018-10-02T16:59:02.008Z,2.87
2018-10-02T17:01:30.446Z,3.20
2018-10-02T17:03:59.647Z,5.27
2018-10-02T17:06:28.537Z,3.60
2018-10-02T17:08:57.391Z,3.60
2018-10-02T17:11:25.851Z,3.50
2018-10-02T17:13:54.322Z,3.57
2018-10-02T17:16:22.758Z,3.83
2018-10-02T17:18:51.243Z,3.43
2018-10-02T17:21:19.693Z,3.00
2018-10-02T17:23:48.142Z,3.00
2018-10-02T17:26:16.592Z,3.57
2018-10-02T17:28:45.079Z,2.87
2018-10-02T17:31:13.674Z,3.23
2018-10-02T17:33:42.325Z,3.37
2018-10-02T17:36:10.765Z,3.63
2018-10-02T17:38:39.487Z,3.63
2018-10-02T17:41:08.055Z,3.20
2018-10-02T17:43:36.983Z,2.73
2018-10-02T17:46:05.455Z,2.60
2018-10-02T17:48:36.708Z,2.10
2018-10-02T17:51:05.177Z,2.40
2018-10-02T17:53:33.771Z,2.90
2018-10-02T17:56:02.214Z,2.30
2018-10-02T17:58:30.643Z,2.73
2018-10-02T18:03:58.012Z,2.93
2018-10-02T18:06:26.615Z,3.33
2018-10-02T18:08:55.066Z,3.73
2018-10-02T18:11:23.502Z,2.50
2018-10-02T18:13:51.914Z,2.73
2018-10-02T18:16:20.735Z,2.97
2018-10-02T18:18:49.156Z,3.20
2018-10-02T18:21:17.635Z,3.17
2018-10-02T18:23:46.051Z,2.67
2018-10-02T18:26:14.499Z,2.63
2018-10-02T18:28:42.938Z,3.40
2018-10-02T18:31:11.397Z,3.27
2018-10-02T18:33:39.830Z,2.93
2018-10-02T18:36:08.628Z,2.60
2018-10-02T18:38:37.105Z,3.73
2018-10-02T18:41:05.953Z,2.67
2018-10-02T18:43:34.405Z,2.73
2018-10-02T18:46:02.978Z,2.70
2018-10-02T18:48:33.118Z,2.80
2018-10-02T18:51:01.575Z,2.80
2018-10-02T18:53:30.003Z,2.70
2018-10-02T18:55:58.505Z,3.00
2018-10-02T18:58:27.090Z,3.43
2018-10-02T19:00:55.567Z,3.00
2018-10-02T19:03:23.983Z,2.80
2018-10-02T19:05:52.470Z,3.43
2018-10-02T19:09:25.397Z,3.47
2018-10-02T19:11:59.107Z,3.90
2018-10-02T19:14:27.538Z,4.37
2018-10-02T19:16:55.987Z,4.10
2018-10-02T19:19:29.590Z,4.27
2018-10-02T19:21:58.040Z,4.63
2018-10-02T19:24:26.481Z,5.03
2018-10-02T19:26:54.946Z,4.93
2018-10-02T19:29:23.376Z,4.97
2018-10-02T19:31:57.147Z,4.50
2018-10-02T19:34:25.567Z,5.30
2018-10-02T19:36:54.020Z,3.60
2018-10-02T19:39:25.116Z,4.70
2018-10-02T19:41:53.639Z,4.60
2018-10-02T19:44:22.070Z,3.77
2018-10-02T19:46:54.871Z,3.57
2018-10-02T19:49:24.737Z,3.60
2018-10-02T19:52:00.706Z,4.23
2018-10-02T19:54:29.180Z,4.03
2018-10-02T19:56:57.640Z,4.77
2018-10-02T19:59:26.458Z,3.67
2018-10-02T20:01:54.907Z,4.47
2018-10-02T20:04:23.377Z,4.70
2018-10-02T20:06:51.978Z,4.77
2018-10-02T20:09:20.446Z,4.33
2018-10-02T20:11:48.871Z,4.63
2018-10-02T20:14:17.359Z,4.73
2018-10-02T20:16:45.790Z,4.60
2018-10-02T20:19:14.295Z,4.20
2018-10-02T20:21:42.727Z,4.63
2018-10-02T20:24:11.187Z,4.63
2018-10-02T20:26:39.653Z,4.93
2018-10-02T20:29:08.122Z,4.87
2018-10-02T20:31:39.036Z,5.40
2018-10-02T20:34:07.507Z,6.30
2018-10-02T20:36:36.089Z,4.97
2018-10-02T20:39:06.158Z,4.50
2018-10-02T20:41:34.614Z,5.33
2018-10-02T20:44:03.150Z,4.17
2018-10-02T20:46:31.631Z,5.27
2018-10-02T20:49:00.169Z,5.03
2018-10-02T20:51:28.731Z,5.27
2018-10-02T20:53:57.672Z,4.40
2018-10-02T20:56:26.574Z,4.20
2018-10-02T20:58:55.019Z,6.50
2018-10-02T21:01:23.896Z,5.37
2018-10-02T21:03:52.371Z,4.50
2018-10-02T21:06:20.915Z,4.00
2018-10-02T21:08:49.359Z,5.70
2018-10-02T21:11:17.780Z,4.80
2018-10-02T21:13:46.243Z,4.40
2018-10-02T21:16:14.676Z,4.70
2018-10-02T21:18:43.140Z,3.80
2018-10-02T21:21:11.896Z,4.60
2018-10-02T21:23:40.331Z,4.30
2018-10-02T21:26:08.763Z,4.10
2018-10-02T21:28:37.216Z,5.13
2018-10-02T21:31:05.653Z,4.47
2018-10-02T21:33:34.098Z,4.37
2018-10-02T21:36:03.231Z,4.03
2018-10-02T21:38:31.675Z,4.40
2018-10-02T21:41:00.109Z,4.43
2018-10-02T21:43:28.562Z,4.67
2018-10-02T21:45:57.363Z,4.37
2018-10-02T21:48:26.196Z,4.90
2018-10-02T21:50:54.778Z,4.53
2018-10-02T21:53:23.229Z,4.73
2018-10-02T21:55:51.696Z,4.07
2018-10-02T21:58:20.283Z,5.33
2018-10-02T22:00:49.258Z,4.37
2018-10-02T22:03:17.691Z,4.03
2018-10-02T22:05:46.162Z,4.43
2018-10-02T22:08:14.623Z,4.60
2018-10-02T22:10:43.068Z,4.03
2018-10-02T22:13:11.539Z,5.37
2018-10-02T22:15:40.003Z,5.37
2018-10-02T22:18:08.434Z,4.50
2018-10-02T22:20:36.891Z,4.93
2018-10-02T22:23:05.317Z,5.17
2018-10-02T22:25:33.788Z,4.47
2018-10-02T22:28:02.218Z,4.73
2018-10-02T22:30:30.674Z,4.20
2018-10-02T22:32:59.099Z,4.57
2018-10-02T22:35:27.549Z,4.27
2018-10-02T22:37:56.007Z,5.07
2018-10-02T22:40:24.467Z,4.20
2018-10-02T22:42:52.895Z,3.43
2018-10-02T22:45:21.352Z,4.73
2018-10-02T22:47:49.786Z,5.23
2018-10-02T22:50:18.230Z,4.27
2018-10-02T22:52:46.664Z,4.77
2018-10-02T22:55:15.118Z,3.73
2018-10-02T22:57:43.667Z,4.87
2018-10-02T23:00:12.118Z,4.97
2018-10-02T23:02:40.557Z,4.73
2018-10-02T23:05:09.020Z,4.70
2018-10-02T23:07:37.433Z,4.77
2018-10-02T23:10:05.916Z,4.60
2018-10-02T23:12:34.355Z,3.93
2018-10-02T23:15:02.812Z,4.13
2018-10-02T23:17:31.251Z,5.13
2018-10-02T23:19:59.696Z,4.97
2018-10-02T23:22:28.122Z,3.80
2018-10-02T23:24:56.615Z,5.37
2018-10-02T23:27:25.050Z,3.93
2018-10-02T23:29:53.567Z,4.90
2018-10-02T23:32:22.046Z,4.57
2018-10-02T23:34:50.496Z,5.77
2018-10-02T23:37:18.993Z,5.60
2018-10-02T23:39:47.422Z,5.23
2018-10-02T23:42:15.898Z,4.23
2018-10-02T23:44:44.488Z,4.47
2018-10-02T23:47:12.970Z,4.67
2018-10-02T23:49:41.399Z,4.97
2018-10-02T23:52:09.842Z,5.27
2018-10-02T23:54:39.514Z,4.33
2018-10-02T23:57:07.980Z,6.23
2018-10-02T23:59:36.423Z,4.93
